sensor_id;sensor_type;location;lat;lon;timestamp;P1;durP1;ratioP1;P2;durP2;ratioP2
10469;SDS011;5282;47.052;15.458;2023-02-21T00:01:15;5.23;;;4.93;;
10469;SDS011;5282;47.052;15.458;2023-02-21T00:04:03;5.37;;;4.70;;
10469;SDS011;5282;47.052;15.458;2023-02-21T00:06:47;5.70;;;4.97;;
10469;SDS011;5282;47.052;15.458;2023-02-21T00:09:31;4.93;;;4.53;;
10469;SDS011;5282;47.052;15.458;2023-02-21T00:12:18;5.63;;;5.13;;
10469;SDS011;5282;47.052;15.458;2023-02-21T00:15:03;6.33;;;5.40;;
10469;SDS011;5282;47.052;15.458;2023-02-21T00:17:48;5.50;;;5.20;;
10469;SDS011;5282;47.052;15.458;2023-02-21T00:20:34;5.43;;;5.13;;
10469;SDS011;5282;47.052;15.458;2023-02-21T00:23:18;6.10;;;5.70;;
10469;SDS011;5282;47.052;15.458;2023-02-21T00:26:03;6.30;;;5.70;;
10469;SDS011;5282;47.052;15.458;2023-02-21T00:28:48;5.97;;;5.47;;
10469;SDS011;5282;47.052;15.458;2023-02-21T00:31:32;6.10;;;5.60;;
10469;SDS011;5282;47.052;15.458;2023-02-21T00:34:16;5.30;;;4.93;;
10469;SDS011;5282;47.052;15.458;2023-02-21T00:37:02;6.07;;;5.63;;
10469;SDS011;5282;47.052;15.458;2023-02-21T00:39:47;6.83;;;5.73;;
10469;SDS011;5282;47.052;15.458;2023-02-21T00:42:32;7.37;;;6.00;;
10469;SDS011;5282;47.052;15.458;2023-02-21T00:45:18;7.60;;;6.93;;
10469;SDS011;5282;47.052;15.458;2023-02-21T00:48:03;7.27;;;6.63;;
10469;SDS011;5282;47.052;15.458;2023-02-21T00:50:48;8.03;;;7.33;;
10469;SDS011;5282;47.052;15.458;2023-02-21T00:53:35;7.67;;;6.80;;
10469;SDS011;5282;47.052;15.458;2023-02-21T00:56:19;8.57;;;7.30;;
10469;SDS011;5282;47.052;15.458;2023-02-21T00:59:03;8.93;;;8.00;;
10469;SDS011;5282;47.052;15.458;2023-02-21T01:01:48;8.60;;;7.77;;
10469;SDS011;5282;47.052;15.458;2023-02-21T01:04:32;8.97;;;8.13;;
10469;SDS011;5282;47.052;15.458;2023-02-21T01:07:17;7.93;;;7.13;;
10469;SDS011;5282;47.052;15.458;2023-02-21T01:10:03;8.33;;;7.63;;
10469;SDS011;5282;47.052;15.458;2023-02-21T01:12:48;8.43;;;7.60;;
10469;SDS011;5282;47.052;15.458;2023-02-21T01:15:32;8.60;;;7.73;;
10469;SDS011;5282;47.052;15.458;2023-02-21T01:18:16;10.97;;;8.73;;
10469;SDS011;5282;47.052;15.458;2023-02-21T01:21:00;11.17;;;8.47;;
10469;SDS011;5282;47.052;15.458;2023-02-21T01:23:44;10.63;;;8.27;;
10469;SDS011;5282;47.052;15.458;2023-02-21T01:26:31;9.40;;;8.50;;
10469;SDS011;5282;47.052;15.458;2023-02-21T01:29:16;12.43;;;8.93;;
10469;SDS011;5282;47.052;15.458;2023-02-21T01:32:00;9.80;;;8.57;;
10469;SDS011;5282;47.052;15.458;2023-02-21T01:34:44;9.13;;;8.30;;
10469;SDS011;5282;47.052;15.458;2023-02-21T01:37:28;9.63;;;8.50;;
10469;SDS011;5282;47.052;15.458;2023-02-21T01:40:13;9.57;;;8.57;;
10469;SDS011;5282;47.052;15.458;2023-02-21T01:42:59;9.77;;;8.77;;
10469;SDS011;5282;47.052;15.458;2023-02-21T01:45:48;12.90;;;9.30;;
10469;SDS011;5282;47.052;15.458;2023-02-21T01:48:41;10.57;;;9.57;;
10469;SDS011;5282;47.052;15.458;2023-02-21T01:51:27;10.73;;;9.13;;
10469;SDS011;5282;47.052;15.458;2023-02-21T01:54:17;11.23;;;9.97;;
10469;SDS011;5282;47.052;15.458;2023-02-21T01:57:02;12.37;;;9.73;;
10469;SDS011;5282;47.052;15.458;2023-02-21T01:59:49;15.13;;;9.17;;
10469;SDS011;5282;47.052;15.458;2023-02-21T02:02:38;11.57;;;10.00;;
10469;SDS011;5282;47.052;15.458;2023-02-21T02:05:30;12.40;;;10.27;;
10469;SDS011;5282;47.052;15.458;2023-02-21T02:08:16;12.70;;;10.00;;
10469;SDS011;5282;47.052;15.458;2023-02-21T02:11:05;11.17;;;9.90;;
10469;SDS011;5282;47.052;15.458;2023-02-21T02:14:06;12.67;;;10.27;;
10469;SDS011;5282;47.052;15.458;2023-02-21T02:16:50;11.00;;;9.87;;
10469;SDS011;5282;47.052;15.458;2023-02-21T02:19:33;10.40;;;9.40;;
10469;SDS011;5282;47.052;15.458;2023-02-21T02:22:21;9.30;;;8.33;;
10469;SDS011;5282;47.052;15.458;2023-02-21T02:25:24;9.33;;;8.27;;
10469;SDS011;5282;47.052;15.458;2023-02-21T02:28:25;9.07;;;8.17;;
10469;SDS011;5282;47.052;15.458;2023-02-21T02:31:15;8.67;;;7.87;;
10469;SDS011;5282;47.052;15.458;2023-02-21T02:36:52;7.90;;;7.20;;
10469;SDS011;5282;47.052;15.458;2023-02-21T02:39:26;10.63;;;8.47;;
10469;SDS011;5282;47.052;15.458;2023-02-21T02:42:00;7.73;;;7.03;;
10469;SDS011;5282;47.052;15.458;2023-02-21T02:44:33;7.47;;;6.77;;
10469;SDS011;5282;47.052;15.458;2023-02-21T02:47:05;7.77;;;7.17;;
10469;SDS011;5282;47.052;15.458;2023-02-21T02:49:38;7.07;;;6.47;;
10469;SDS011;5282;47.052;15.458;2023-02-21T02:52:09;6.63;;;6.23;;
10469;SDS011;5282;47.052;15.458;2023-02-21T02:54:36;6.80;;;6.20;;
10469;SDS011;5282;47.052;15.458;2023-02-21T02:57:04;6.80;;;6.23;;
10469;SDS011;5282;47.052;15.458;2023-02-21T02:59:38;6.77;;;6.10;;
10469;SDS011;5282;47.052;15.458;2023-02-21T03:02:16;7.43;;;6.83;;
10469;SDS011;5282;47.052;15.458;2023-02-21T03:05:17;7.37;;;6.70;;
10469;SDS011;5282;47.052;15.458;2023-02-21T03:07:57;8.00;;;6.50;;
10469;SDS011;5282;47.052;15.458;2023-02-21T03:10:33;6.57;;;6.07;;
10469;SDS011;5282;47.052;15.458;2023-02-21T03:13:10;7.00;;;6.30;;
10469;SDS011;5282;47.052;15.458;2023-02-21T03:15:43;7.20;;;6.33;;
10469;SDS011;5282;47.052;15.458;2023-02-21T03:18:16;7.10;;;6.50;;
10469;SDS011;5282;47.052;15.458;2023-02-21T03:20:52;6.27;;;5.87;;
10469;SDS011;5282;47.052;15.458;2023-02-21T03:23:23;6.27;;;5.77;;
10469;SDS011;5282;47.052;15.458;2023-02-21T03:25:53;6.90;;;6.20;;
10469;SDS011;5282;47.052;15.458;2023-02-21T03:28:24;6.50;;;5.90;;
10469;SDS011;5282;47.052;15.458;2023-02-21T03:30:52;6.47;;;5.87;;
10469;SDS011;5282;47.052;15.458;2023-02-21T03:33:22;6.23;;;5.63;;
10469;SDS011;5282;47.052;15.458;2023-02-21T03:35:49;6.20;;;5.77;;
10469;SDS011;5282;47.052;15.458;2023-02-21T03:38:18;5.63;;;5.13;;
10469;SDS011;5282;47.052;15.458;2023-02-21T03:40:45;5.90;;;5.40;;
10469;SDS011;5282;47.052;15.458;2023-02-21T03:43:12;5.70;;;5.30;;
10469;SDS011;5282;47.052;15.458;2023-02-21T03:45:39;5.53;;;5.03;;
10469;SDS011;5282;47.052;15.458;2023-02-21T03:48:06;6.00;;;5.37;;
10469;SDS011;5282;47.052;15.458;2023-02-21T03:50:33;5.47;;;5.17;;
10469;SDS011;5282;47.052;15.458;2023-02-21T03:53:01;5.37;;;4.80;;
10469;SDS011;5282;47.052;15.458;2023-02-21T03:55:28;5.27;;;4.87;;
10469;SDS011;5282;47.052;15.458;2023-02-21T03:57:55;5.17;;;4.67;;
10469;SDS011;5282;47.052;15.458;2023-02-21T04:00:23;5.70;;;5.20;;
10469;SDS011;5282;47.052;15.458;2023-02-21T04:02:49;5.10;;;4.70;;
10469;SDS011;5282;47.052;15.458;2023-02-21T04:05:16;4.70;;;4.40;;
10469;SDS011;5282;47.052;15.458;2023-02-21T04:07:43;5.90;;;5.30;;
10469;SDS011;5282;47.052;15.458;2023-02-21T04:10:12;5.50;;;5.00;;
10469;SDS011;5282;47.052;15.458;2023-02-21T04:12:39;4.67;;;4.27;;
10469;SDS011;5282;47.052;15.458;2023-02-21T04:15:06;6.97;;;5.17;;
10469;SDS011;5282;47.052;15.458;2023-02-21T04:17:34;5.67;;;5.17;;
10469;SDS011;5282;47.052;15.458;2023-02-21T04:20:03;4.80;;;3.80;;
10469;SDS011;5282;47.052;15.458;2023-02-21T04:22:31;4.13;;;3.83;;
10469;SDS011;5282;47.052;15.458;2023-02-21T04:24:57;4.17;;;3.87;;
10469;SDS011;5282;47.052;15.458;2023-02-21T04:27:28;4.33;;;3.80;;
10469;SDS011;5282;47.052;15.458;2023-02-21T04:29:55;4.37;;;3.90;;
10469;SDS011;5282;47.052;15.458;2023-02-21T04:32:22;3.63;;;3.40;;
10469;SDS011;5282;47.052;15.458;2023-02-21T04:34:49;4.00;;;3.67;;
10469;SDS011;5282;47.052;15.458;2023-02-21T04:37:16;3.87;;;3.60;;
10469;SDS011;5282;47.052;15.458;2023-02-21T04:39:44;5.67;;;3.77;;
10469;SDS011;5282;47.052;15.458;2023-02-21T04:42:11;4.93;;;4.47;;
10469;SDS011;5282;47.052;15.458;2023-02-21T04:44:39;6.83;;;4.37;;
10469;SDS011;5282;47.052;15.458;2023-02-21T04:47:06;4.07;;;3.77;;
10469;SDS011;5282;47.052;15.458;2023-02-21T04:49:33;4.90;;;4.40;;
10469;SDS011;5282;47.052;15.458;2023-02-21T04:52:00;4.33;;;3.93;;
10469;SDS011;5282;47.052;15.458;2023-02-21T04:54:26;5.47;;;4.00;;
10469;SDS011;5282;47.052;15.458;2023-02-21T04:56:53;3.70;;;3.40;;
10469;SDS011;5282;47.052;15.458;2023-02-21T04:59:20;4.47;;;4.07;;
10469;SDS011;5282;47.052;15.458;2023-02-21T05:01:49;4.70;;;4.30;;
10469;SDS011;5282;47.052;15.458;2023-02-21T05:04:16;5.70;;;4.20;;
10469;SDS011;5282;47.052;15.458;2023-02-21T05:06:42;4.77;;;4.27;;
10469;SDS011;5282;47.052;15.458;2023-02-21T05:09:09;4.60;;;4.30;;
10469;SDS011;5282;47.052;15.458;2023-02-21T05:11:36;5.10;;;4.70;;
10469;SDS011;5282;47.052;15.458;2023-02-21T05:14:03;4.90;;;4.60;;
10469;SDS011;5282;47.052;15.458;2023-02-21T05:16:30;7.63;;;4.80;;
10469;SDS011;5282;47.052;15.458;2023-02-21T05:18:58;5.20;;;4.70;;
10469;SDS011;5282;47.052;15.458;2023-02-21T05:21:32;5.57;;;4.53;;
10469;SDS011;5282;47.052;15.458;2023-02-21T05:24:00;5.47;;;5.07;;
10469;SDS011;5282;47.052;15.458;2023-02-21T05:26:32;4.60;;;4.40;;
10469;SDS011;5282;47.052;15.458;2023-02-21T05:29:00;5.47;;;5.00;;
10469;SDS011;5282;47.052;15.458;2023-02-21T05:31:29;6.07;;;5.13;;
10469;SDS011;5282;47.052;15.458;2023-02-21T05:33:56;5.23;;;4.67;;
10469;SDS011;5282;47.052;15.458;2023-02-21T05:36:25;5.50;;;5.00;;
10469;SDS011;5282;47.052;15.458;2023-02-21T05:38:53;6.50;;;5.23;;
10469;SDS011;5282;47.052;15.458;2023-02-21T05:41:21;6.70;;;6.10;;
10469;SDS011;5282;47.052;15.458;2023-02-21T05:43:48;9.20;;;8.30;;
10469;SDS011;5282;47.052;15.458;2023-02-21T05:46:19;14.30;;;12.60;;
10469;SDS011;5282;47.052;15.458;2023-02-21T05:48:48;22.23;;;16.70;;
10469;SDS011;5282;47.052;15.458;2023-02-21T05:51:17;17.60;;;15.40;;
10469;SDS011;5282;47.052;15.458;2023-02-21T05:53:44;12.57;;;11.33;;
10469;SDS011;5282;47.052;15.458;2023-02-21T05:56:12;11.73;;;9.40;;
10469;SDS011;5282;47.052;15.458;2023-02-21T05:58:39;13.97;;;12.40;;
10469;SDS011;5282;47.052;15.458;2023-02-21T06:01:06;18.47;;;10.07;;
10469;SDS011;5282;47.052;15.458;2023-02-21T06:03:33;11.03;;;9.23;;
10469;SDS011;5282;47.052;15.458;2023-02-21T06:06:00;10.57;;;9.47;;
10469;SDS011;5282;47.052;15.458;2023-02-21T06:08:29;15.33;;;10.77;;
10469;SDS011;5282;47.052;15.458;2023-02-21T06:10:56;12.30;;;10.00;;
10469;SDS011;5282;47.052;15.458;2023-02-21T06:13:22;10.90;;;9.80;;
10469;SDS011;5282;47.052;15.458;2023-02-21T06:15:49;10.20;;;9.27;;
10469;SDS011;5282;47.052;15.458;2023-02-21T06:18:16;15.50;;;9.33;;
10469;SDS011;5282;47.052;15.458;2023-02-21T06:20:43;10.37;;;9.37;;
10469;SDS011;5282;47.052;15.458;2023-02-21T06:23:10;10.50;;;9.50;;
10469;SDS011;5282;47.052;15.458;2023-02-21T06:25:38;10.70;;;9.57;;
10469;SDS011;5282;47.052;15.458;2023-02-21T06:28:05;13.43;;;10.03;;
10469;SDS011;5282;47.052;15.458;2023-02-21T06:30:32;10.83;;;9.83;;
10469;SDS011;5282;47.052;15.458;2023-02-21T06:32:59;10.60;;;9.70;;
10469;SDS011;5282;47.052;15.458;2023-02-21T06:35:26;9.87;;;8.97;;
10469;SDS011;5282;47.052;15.458;2023-02-21T06:37:53;9.23;;;8.40;;
10469;SDS011;5282;47.052;15.458;2023-02-21T06:40:20;10.20;;;8.17;;
10469;SDS011;5282;47.052;15.458;2023-02-21T06:42:48;9.83;;;8.93;;
10469;SDS011;5282;47.052;15.458;2023-02-21T06:45:15;8.73;;;7.93;;
10469;SDS011;5282;47.052;15.458;2023-02-21T06:47:42;8.87;;;8.00;;
10469;SDS011;5282;47.052;15.458;2023-02-21T06:50:09;9.70;;;8.70;;
10469;SDS011;5282;47.052;15.458;2023-02-21T06:52:36;9.50;;;8.13;;
10469;SDS011;5282;47.052;15.458;2023-02-21T06:55:03;10.27;;;7.83;;
10469;SDS011;5282;47.052;15.458;2023-02-21T06:57:31;9.10;;;7.10;;
10469;SDS011;5282;47.052;15.458;2023-02-21T06:59:59;10.53;;;7.13;;
10469;SDS011;5282;47.052;15.458;2023-02-21T07:02:26;8.07;;;5.87;;
10469;SDS011;5282;47.052;15.458;2023-02-21T07:04:52;6.83;;;5.80;;
10469;SDS011;5282;47.052;15.458;2023-02-21T07:07:19;10.63;;;7.07;;
10469;SDS011;5282;47.052;15.458;2023-02-21T07:09:46;14.07;;;7.27;;
10469;SDS011;5282;47.052;15.458;2023-02-21T07:12:13;10.63;;;7.43;;
10469;SDS011;5282;47.052;15.458;2023-02-21T07:14:40;7.60;;;6.60;;
10469;SDS011;5282;47.052;15.458;2023-02-21T07:17:08;8.00;;;5.87;;
10469;SDS011;5282;47.052;15.458;2023-02-21T07:19:35;7.40;;;5.63;;
10469;SDS011;5282;47.052;15.458;2023-02-21T07:22:02;6.33;;;5.00;;
10469;SDS011;5282;47.052;15.458;2023-02-21T07:24:30;7.17;;;4.10;;
10469;SDS011;5282;47.052;15.458;2023-02-21T07:26:56;5.57;;;4.10;;
10469;SDS011;5282;47.052;15.458;2023-02-21T07:29:23;6.00;;;5.40;;
10469;SDS011;5282;47.052;15.458;2023-02-21T07:31:50;7.03;;;6.43;;
10469;SDS011;5282;47.052;15.458;2023-02-21T07:34:19;7.97;;;7.07;;
10469;SDS011;5282;47.052;15.458;2023-02-21T07:36:47;7.73;;;6.93;;
10469;SDS011;5282;47.052;15.458;2023-02-21T07:39:14;10.47;;;6.57;;
10469;SDS011;5282;47.052;15.458;2023-02-21T07:41:41;5.37;;;4.80;;
10469;SDS011;5282;47.052;15.458;2023-02-21T07:44:08;4.73;;;4.20;;
10469;SDS011;5282;47.052;15.458;2023-02-21T07:46:35;5.37;;;4.13;;
10469;SDS011;5282;47.052;15.458;2023-02-21T07:49:02;5.20;;;3.80;;
10469;SDS011;5282;47.052;15.458;2023-02-21T07:51:30;4.23;;;3.73;;
10469;SDS011;5282;47.052;15.458;2023-02-21T07:53:57;7.27;;;4.00;;
10469;SDS011;5282;47.052;15.458;2023-02-21T07:56:24;5.70;;;3.93;;
10469;SDS011;5282;47.052;15.458;2023-02-21T07:58:51;5.00;;;3.77;;
10469;SDS011;5282;47.052;15.458;2023-02-21T08:01:20;6.37;;;3.20;;
10469;SDS011;5282;47.052;15.458;2023-02-21T08:03:48;3.57;;;3.23;;
10469;SDS011;5282;47.052;15.458;2023-02-21T08:06:16;4.27;;;3.50;;
10469;SDS011;5282;47.052;15.458;2023-02-21T08:08:44;12.33;;;4.17;;
10469;SDS011;5282;47.052;15.458;2023-02-21T08:11:11;8.93;;;3.83;;
10469;SDS011;5282;47.052;15.458;2023-02-21T08:13:38;6.63;;;3.17;;
10469;SDS011;5282;47.052;15.458;2023-02-21T08:16:07;5.03;;;4.03;;
10469;SDS011;5282;47.052;15.458;2023-02-21T08:18:34;6.77;;;3.57;;
10469;SDS011;5282;47.052;15.458;2023-02-21T08:21:01;7.27;;;3.97;;
10469;SDS011;5282;47.052;15.458;2023-02-21T08:23:30;9.77;;;4.13;;
10469;SDS011;5282;47.052;15.458;2023-02-21T08:25:59;6.43;;;3.53;;
10469;SDS011;5282;47.052;15.458;2023-02-21T08:28:26;7.27;;;3.57;;
10469;SDS011;5282;47.052;15.458;2023-02-21T08:30:53;6.27;;;3.93;;
10469;SDS011;5282;47.052;15.458;2023-02-21T08:33:19;4.27;;;3.87;;
10469;SDS011;5282;47.052;15.458;2023-02-21T08:35:47;6.40;;;3.73;;
10469;SDS011;5282;47.052;15.458;2023-02-21T08:38:14;5.67;;;4.03;;
10469;SDS011;5282;47.052;15.458;2023-02-21T08:40:41;5.40;;;3.87;;
10469;SDS011;5282;47.052;15.458;2023-02-21T08:43:09;6.37;;;4.50;;
10469;SDS011;5282;47.052;15.458;2023-02-21T08:45:36;6.37;;;4.23;;
10469;SDS011;5282;47.052;15.458;2023-02-21T08:48:03;10.70;;;5.67;;
10469;SDS011;5282;47.052;15.458;2023-02-21T08:50:30;12.63;;;5.60;;
10469;SDS011;5282;47.052;15.458;2023-02-21T08:52:57;8.67;;;5.77;;
10469;SDS011;5282;47.052;15.458;2023-02-21T08:55:25;12.97;;;6.43;;
10469;SDS011;5282;47.052;15.458;2023-02-21T08:57:52;7.20;;;6.47;;
10469;SDS011;5282;47.052;15.458;2023-02-21T09:00:22;15.83;;;6.40;;
10469;SDS011;5282;47.052;15.458;2023-02-21T09:02:52;7.13;;;6.20;;
10469;SDS011;5282;47.052;15.458;2023-02-21T09:05:21;6.87;;;5.97;;
10469;SDS011;5282;47.052;15.458;2023-02-21T09:07:51;10.70;;;5.73;;
10469;SDS011;5282;47.052;15.458;2023-02-21T09:10:23;9.27;;;6.27;;
10469;SDS011;5282;47.052;15.458;2023-02-21T09:12:51;7.93;;;5.90;;
10469;SDS011;5282;47.052;15.458;2023-02-21T09:15:18;8.63;;;5.90;;
10469;SDS011;5282;47.052;15.458;2023-02-21T09:17:46;7.80;;;5.87;;
10469;SDS011;5282;47.052;15.458;2023-02-21T09:20:16;8.03;;;5.33;;
10469;SDS011;5282;47.052;15.458;2023-02-21T09:22:46;6.80;;;5.20;;
10469;SDS011;5282;47.052;15.458;2023-02-21T09:25:13;8.43;;;5.00;;
10469;SDS011;5282;47.052;15.458;2023-02-21T09:27:42;10.00;;;5.27;;
10469;SDS011;5282;47.052;15.458;2023-02-21T09:30:10;10.00;;;5.20;;
10469;SDS011;5282;47.052;15.458;2023-02-21T09:32:39;10.60;;;5.30;;
10469;SDS011;5282;47.052;15.458;2023-02-21T09:35:07;8.63;;;5.23;;
10469;SDS011;5282;47.052;15.458;2023-02-21T09:37:36;8.13;;;5.47;;
10469;SDS011;5282;47.052;15.458;2023-02-21T09:40:04;6.83;;;4.37;;
10469;SDS011;5282;47.052;15.458;2023-02-21T09:42:36;6.80;;;4.37;;
10469;SDS011;5282;47.052;15.458;2023-02-21T09:45:07;12.43;;;4.83;;
10469;SDS011;5282;47.052;15.458;2023-02-21T09:47:39;5.27;;;4.27;;
10469;SDS011;5282;47.052;15.458;2023-02-21T09:50:11;6.43;;;3.80;;
10469;SDS011;5282;47.052;15.458;2023-02-21T09:52:40;5.20;;;4.67;;
10469;SDS011;5282;47.052;15.458;2023-02-21T09:55:11;5.00;;;4.20;;
10469;SDS011;5282;47.052;15.458;2023-02-21T09:57:47;6.53;;;4.97;;
10469;SDS011;5282;47.052;15.458;2023-02-21T10:00:17;10.17;;;4.87;;
10469;SDS011;5282;47.052;15.458;2023-02-21T10:02:50;7.73;;;5.50;;
10469;SDS011;5282;47.052;15.458;2023-02-21T10:05:32;7.07;;;5.83;;
10469;SDS011;5282;47.052;15.458;2023-02-21T10:08:08;12.93;;;6.20;;
10469;SDS011;5282;47.052;15.458;2023-02-21T10:10:45;18.73;;;7.03;;
10469;SDS011;5282;47.052;15.458;2023-02-21T10:13:28;23.03;;;7.80;;
10469;SDS011;5282;47.052;15.458;2023-02-21T10:16:02;14.20;;;6.23;;
10469;SDS011;5282;47.052;15.458;2023-02-21T10:18:35;10.10;;;4.97;;
10469;SDS011;5282;47.052;15.458;2023-02-21T10:21:13;8.50;;;3.80;;
10469;SDS011;5282;47.052;15.458;2023-02-21T10:23:47;3.93;;;3.50;;
10469;SDS011;5282;47.052;15.458;2023-02-21T10:26:17;11.77;;;4.30;;
10469;SDS011;5282;47.052;15.458;2023-02-21T10:28:48;9.13;;;3.10;;
10469;SDS011;5282;47.052;15.458;2023-02-21T10:31:18;4.50;;;3.23;;
10469;SDS011;5282;47.052;15.458;2023-02-21T10:33:49;9.00;;;3.80;;
10469;SDS011;5282;47.052;15.458;2023-02-21T10:36:18;3.60;;;3.30;;
10469;SDS011;5282;47.052;15.458;2023-02-21T10:38:50;4.50;;;3.27;;
10469;SDS011;5282;47.052;15.458;2023-02-21T10:41:21;7.10;;;3.33;;
10469;SDS011;5282;47.052;15.458;2023-02-21T10:43:49;8.43;;;3.00;;
10469;SDS011;5282;47.052;15.458;2023-02-21T10:46:22;3.20;;;2.60;;
10469;SDS011;5282;47.052;15.458;2023-02-21T10:48:54;3.80;;;2.60;;
10469;SDS011;5282;47.052;15.458;2023-02-21T10:51:30;3.20;;;2.90;;
10469;SDS011;5282;47.052;15.458;2023-02-21T10:56:44;3.20;;;2.90;;
10469;SDS011;5282;47.052;15.458;2023-02-21T10:59:17;4.93;;;3.20;;
10469;SDS011;5282;47.052;15.458;2023-02-21T11:01:46;4.77;;;2.83;;
10469;SDS011;5282;47.052;15.458;2023-02-21T11:04:22;2.67;;;2.50;;
10469;SDS011;5282;47.052;15.458;2023-02-21T11:06:54;6.07;;;3.20;;
10469;SDS011;5282;47.052;15.458;2023-02-21T11:09:34;4.70;;;2.70;;
10469;SDS011;5282;47.052;15.458;2023-02-21T11:12:04;2.83;;;2.70;;
10469;SDS011;5282;47.052;15.458;2023-02-21T11:14:43;4.90;;;2.30;;
10469;SDS011;5282;47.052;15.458;2023-02-21T11:17:12;4.27;;;2.93;;
10469;SDS011;5282;47.052;15.458;2023-02-21T11:19:42;3.90;;;2.60;;
10469;SDS011;5282;47.052;15.458;2023-02-21T11:22:13;8.03;;;2.90;;
10469;SDS011;5282;47.052;15.458;2023-02-21T11:24:46;3.50;;;3.00;;
10469;SDS011;5282;47.052;15.458;2023-02-21T11:27:18;4.90;;;2.60;;
10469;SDS011;5282;47.052;15.458;2023-02-21T11:29:46;6.60;;;2.80;;
10469;SDS011;5282;47.052;15.458;2023-02-21T11:32:19;4.13;;;2.70;;
10469;SDS011;5282;47.052;15.458;2023-02-21T11:34:50;4.53;;;2.50;;
10469;SDS011;5282;47.052;15.458;2023-02-21T11:37:18;2.63;;;2.43;;
10469;SDS011;5282;47.052;15.458;2023-02-21T11:39:49;2.80;;;2.53;;
10469;SDS011;5282;47.052;15.458;2023-02-21T11:42:24;5.20;;;2.57;;
10469;SDS011;5282;47.052;15.458;2023-02-21T11:45:03;3.73;;;2.50;;
10469;SDS011;5282;47.052;15.458;2023-02-21T11:47:40;2.87;;;2.60;;
10469;SDS011;5282;47.052;15.458;2023-02-21T11:50:14;2.47;;;2.27;;
10469;SDS011;5282;47.052;15.458;2023-02-21T11:52:51;2.93;;;2.23;;
10469;SDS011;5282;47.052;15.458;2023-02-21T11:55:26;4.70;;;2.40;;
10469;SDS011;5282;47.052;15.458;2023-02-21T11:58:00;2.50;;;2.30;;
10469;SDS011;5282;47.052;15.458;2023-02-21T12:00:42;2.33;;;2.13;;
10469;SDS011;5282;47.052;15.458;2023-02-21T12:03:35;4.80;;;2.20;;
10469;SDS011;5282;47.052;15.458;2023-02-21T12:06:23;7.37;;;2.57;;
10469;SDS011;5282;47.052;15.458;2023-02-21T12:08:59;4.23;;;2.23;;
10469;SDS011;5282;47.052;15.458;2023-02-21T12:11:32;2.33;;;2.23;;
10469;SDS011;5282;47.052;15.458;2023-02-21T12:17:08;3.67;;;2.20;;
10469;SDS011;5282;47.052;15.458;2023-02-21T12:19:50;3.30;;;2.50;;
10469;SDS011;5282;47.052;15.458;2023-02-21T12:22:32;3.70;;;2.50;;
10469;SDS011;5282;47.052;15.458;2023-02-21T12:25:21;2.90;;;2.00;;
10469;SDS011;5282;47.052;15.458;2023-02-21T12:27:56;2.77;;;2.10;;
10469;SDS011;5282;47.052;15.458;2023-02-21T12:30:43;2.07;;;1.90;;
10469;SDS011;5282;47.052;15.458;2023-02-21T12:33:30;2.00;;;1.73;;
10469;SDS011;5282;47.052;15.458;2023-02-21T12:36:12;2.33;;;2.13;;
10469;SDS011;5282;47.052;15.458;2023-02-21T12:38:49;2.43;;;1.67;;
10469;SDS011;5282;47.052;15.458;2023-02-21T12:41:25;3.30;;;1.80;;
10469;SDS011;5282;47.052;15.458;2023-02-21T12:44:13;3.43;;;1.77;;
10469;SDS011;5282;47.052;15.458;2023-02-21T12:46:45;2.80;;;1.60;;
10469;SDS011;5282;47.052;15.458;2023-02-21T12:49:20;2.17;;;1.40;;
10469;SDS011;5282;47.052;15.458;2023-02-21T12:51:52;3.70;;;1.40;;
10469;SDS011;5282;47.052;15.458;2023-02-21T12:54:33;3.57;;;1.60;;
10469;SDS011;5282;47.052;15.458;2023-02-21T12:57:08;1.83;;;1.73;;
10469;SDS011;5282;47.052;15.458;2023-02-21T12:59:49;2.00;;;1.53;;
10469;SDS011;5282;47.052;15.458;2023-02-21T13:02:28;2.40;;;1.50;;
10469;SDS011;5282;47.052;15.458;2023-02-21T13:05:02;2.07;;;1.30;;
10469;SDS011;5282;47.052;15.458;2023-02-21T13:07:37;1.60;;;1.57;;
10469;SDS011;5282;47.052;15.458;2023-02-21T13:10:12;3.37;;;1.60;;
10469;SDS011;5282;47.052;15.458;2023-02-21T13:12:45;1.67;;;1.57;;
10469;SDS011;5282;47.052;15.458;2023-02-21T13:15:18;1.40;;;1.40;;
10469;SDS011;5282;47.052;15.458;2023-02-21T13:17:51;2.37;;;1.20;;
10469;SDS011;5282;47.052;15.458;2023-02-21T13:20:26;1.37;;;1.27;;
10469;SDS011;5282;47.052;15.458;2023-02-21T13:22:58;1.20;;;1.20;;
10469;SDS011;5282;47.052;15.458;2023-02-21T13:25:28;2.10;;;1.37;;
10469;SDS011;5282;47.052;15.458;2023-02-21T13:28:07;1.50;;;1.27;;
10469;SDS011;5282;47.052;15.458;2023-02-21T13:30:41;1.10;;;1.10;;
10469;SDS011;5282;47.052;15.458;2023-02-21T13:36:00;1.20;;;1.10;;
10469;SDS011;5282;47.052;15.458;2023-02-21T13:38:28;1.37;;;1.27;;
10469;SDS011;5282;47.052;15.458;2023-02-21T13:41:04;1.97;;;1.17;;
10469;SDS011;5282;47.052;15.458;2023-02-21T13:43:36;1.37;;;1.23;;
10469;SDS011;5282;47.052;15.458;2023-02-21T13:46:21;1.20;;;1.20;;
10469;SDS011;5282;47.052;15.458;2023-02-21T13:52:13;1.20;;;1.00;;
10469;SDS011;5282;47.052;15.458;2023-02-21T14:00:55;3.23;;;1.27;;
10469;SDS011;5282;47.052;15.458;2023-02-21T14:03:38;1.10;;;1.10;;
10469;SDS011;5282;47.052;15.458;2023-02-21T14:09:19;3.23;;;1.10;;
10469;SDS011;5282;47.052;15.458;2023-02-21T14:11:47;1.10;;;1.10;;
10469;SDS011;5282;47.052;15.458;2023-02-21T14:14:21;1.03;;;1.00;;
10469;SDS011;5282;47.052;15.458;2023-02-21T14:16:56;2.40;;;0.97;;
10469;SDS011;5282;47.052;15.458;2023-02-21T14:19:30;1.33;;;1.10;;
10469;SDS011;5282;47.052;15.458;2023-02-21T14:22:01;1.33;;;1.20;;
10469;SDS011;5282;47.052;15.458;2023-02-21T14:24:35;1.30;;;1.03;;
10469;SDS011;5282;47.052;15.458;2023-02-21T14:27:29;1.93;;;1.13;;
10469;SDS011;5282;47.052;15.458;2023-02-21T14:33:05;1.17;;;1.17;;
10469;SDS011;5282;47.052;15.458;2023-02-21T14:35:48;1.20;;;1.20;;
10469;SDS011;5282;47.052;15.458;2023-02-21T14:38:24;1.30;;;1.20;;
10469;SDS011;5282;47.052;15.458;2023-02-21T14:40:59;1.10;;;1.10;;
10469;SDS011;5282;47.052;15.458;2023-02-21T14:46:33;4.40;;;1.30;;
10469;SDS011;5282;47.052;15.458;2023-02-21T14:49:37;2.17;;;1.10;;
10469;SDS011;5282;47.052;15.458;2023-02-21T14:52:26;3.40;;;1.07;;
10469;SDS011;5282;47.052;15.458;2023-02-21T14:55:30;1.47;;;1.00;;
10469;SDS011;5282;47.052;15.458;2023-02-21T14:58:13;1.63;;;0.90;;
10469;SDS011;5282;47.052;15.458;2023-02-21T15:01:06;0.60;;;0.60;;
10469;SDS011;5282;47.052;15.458;2023-02-21T15:03:43;1.50;;;0.50;;
10469;SDS011;5282;47.052;15.458;2023-02-21T15:06:17;0.70;;;0.70;;
10469;SDS011;5282;47.052;15.458;2023-02-21T15:08:46;0.60;;;0.60;;
10469;SDS011;5282;47.052;15.458;2023-02-21T15:14:12;0.80;;;0.80;;
10469;SDS011;5282;47.052;15.458;2023-02-21T15:16:47;0.87;;;0.87;;
10469;SDS011;5282;47.052;15.458;2023-02-21T15:19:19;3.40;;;0.70;;
10469;SDS011;5282;47.052;15.458;2023-02-21T15:24:40;1.70;;;0.80;;
10469;SDS011;5282;47.052;15.458;2023-02-21T15:27:21;0.77;;;0.73;;
10469;SDS011;5282;47.052;15.458;2023-02-21T15:30:00;0.93;;;0.73;;
10469;SDS011;5282;47.052;15.458;2023-02-21T15:32:32;1.63;;;0.90;;
10469;SDS011;5282;47.052;15.458;2023-02-21T15:35:01;0.90;;;0.70;;
10469;SDS011;5282;47.052;15.458;2023-02-21T15:37:33;2.27;;;0.80;;
10469;SDS011;5282;47.052;15.458;2023-02-21T15:40:04;0.50;;;0.50;;
10469;SDS011;5282;47.052;15.458;2023-02-21T15:42:39;1.33;;;0.60;;
10469;SDS011;5282;47.052;15.458;2023-02-21T15:45:08;0.70;;;0.70;;
10469;SDS011;5282;47.052;15.458;2023-02-21T15:47:43;0.50;;;0.50;;
10469;SDS011;5282;47.052;15.458;2023-02-21T15:50:11;0.67;;;0.50;;
10469;SDS011;5282;47.052;15.458;2023-02-21T15:52:44;0.50;;;0.50;;
10469;SDS011;5282;47.052;15.458;2023-02-21T15:55:25;1.10;;;1.10;;
10469;SDS011;5282;47.052;15.458;2023-02-21T15:57:58;1.10;;;1.10;;
10469;SDS011;5282;47.052;15.458;2023-02-21T16:00:28;1.50;;;1.50;;